createdAt,value
2019-01-25T00:00:13.618Z,139.30
2019-01-25T00:02:42.005Z,124.93
2019-01-25T00:05:10.826Z,125.47
2019-01-25T00:07:39.211Z,130.13
2019-01-25T00:10:10.958Z,127.97
2019-01-25T00:12:39.360Z,122.43
2019-01-25T00:15:10.692Z,112.80
2019-01-25T00:17:39.072Z,115.60
2019-01-25T00:20:12.408Z,115.80
2019-01-25T00:22:40.802Z,111.37
2019-01-25T00:25:09.645Z,106.63
2019-01-25T00:27:38.029Z,103.33
2019-01-25T00:30:15.077Z,108.67
2019-01-25T00:32:43.460Z,95.97
2019-01-25T00:35:12.300Z,108.83
2019-01-25T00:37:40.754Z,97.12
2019-01-25T00:40:12.329Z,97.17
2019-01-25T00:42:40.703Z,92.80
2019-01-25T00:45:10.634Z,98.80
2019-01-25T00:47:39.083Z,89.37
2019-01-25T00:50:10.534Z,97.97
2019-01-25T00:52:38.919Z,93.33
2019-01-25T00:55:08.946Z,85.97
2019-01-25T00:57:37.512Z,89.33
2019-01-25T01:00:14.752Z,84.90
2019-01-25T01:02:43.140Z,87.22
2019-01-25T01:05:12.059Z,86.87
2019-01-25T01:07:40.455Z,75.40
2019-01-25T01:10:14.170Z,79.23
2019-01-25T01:12:41.412Z,81.23
2019-01-25T01:15:12.835Z,78.87
2019-01-25T01:17:41.402Z,76.60
2019-01-25T01:20:15.040Z,71.60
2019-01-25T01:22:43.503Z,86.50
2019-01-25T01:25:13.329Z,74.63
2019-01-25T01:27:41.792Z,74.67
2019-01-25T01:30:13.243Z,70.20
2019-01-25T01:32:41.638Z,83.87
2019-01-25T01:35:10.342Z,78.73
2019-01-25T01:37:38.728Z,71.53
2019-01-25T01:40:22.002Z,80.50
2019-01-25T01:42:49.247Z,74.27
2019-01-25T01:45:18.268Z,71.20
2019-01-25T01:47:46.724Z,66.97
2019-01-25T01:50:16.845Z,72.80
2019-01-25T01:52:45.473Z,62.87
2019-01-25T01:55:13.988Z,67.13
2019-01-25T01:57:42.371Z,74.63
2019-01-25T02:00:16.620Z,63.60
2019-01-25T02:02:45.183Z,68.13
2019-01-25T02:05:13.922Z,66.83
2019-01-25T02:07:42.329Z,67.60
2019-01-25T02:10:14.473Z,71.93
2019-01-25T02:12:42.874Z,66.50
2019-01-25T02:15:14.307Z,63.80
2019-01-25T02:17:42.972Z,65.87
2019-01-25T02:20:14.760Z,60.97
2019-01-25T02:22:43.168Z,60.73
2019-01-25T02:25:11.564Z,68.30
2019-01-25T02:27:39.967Z,64.90
2019-01-25T02:30:17.366Z,56.67
2019-01-25T02:32:45.770Z,67.53
2019-01-25T02:35:14.250Z,61.87
2019-01-25T02:37:42.641Z,57.08
2019-01-25T02:40:14.264Z,60.98
2019-01-25T02:42:42.659Z,62.15
2019-01-25T02:45:12.670Z,56.57
2019-01-25T02:47:41.233Z,58.17
2019-01-25T02:50:15.052Z,54.20
2019-01-25T02:52:43.446Z,51.40
2019-01-25T02:55:13.070Z,51.70
2019-01-25T02:57:41.463Z,57.67
2019-01-25T03:00:15.345Z,53.43
2019-01-25T03:02:43.738Z,52.23
2019-01-25T03:05:12.760Z,52.90
2019-01-25T03:07:41.151Z,52.10
2019-01-25T03:10:12.822Z,56.00
2019-01-25T03:12:41.282Z,53.17
2019-01-25T03:15:15.457Z,55.57
2019-01-25T03:17:43.853Z,51.18
2019-01-25T03:20:14.377Z,52.30
2019-01-25T03:22:42.771Z,49.70
2019-01-25T03:25:19.694Z,53.53
2019-01-25T03:27:48.080Z,47.73
2019-01-25T03:30:18.906Z,49.70
2019-01-25T03:32:47.392Z,49.57
2019-01-25T03:35:17.688Z,53.00
2019-01-25T03:37:46.149Z,48.67
2019-01-25T03:40:19.623Z,55.48
2019-01-25T03:42:48.176Z,47.60
2019-01-25T03:45:17.019Z,49.13
2019-01-25T03:47:45.473Z,47.20
2019-01-25T03:50:20.093Z,51.20
2019-01-25T03:52:48.488Z,48.20
2019-01-25T03:55:17.111Z,49.73
2019-01-25T03:57:45.511Z,47.93
2019-01-25T04:00:16.945Z,45.90
2019-01-25T04:02:45.418Z,44.90
2019-01-25T04:05:15.541Z,46.63
2019-01-25T04:07:44.078Z,42.10
2019-01-25T04:10:15.663Z,41.07
2019-01-25T04:12:44.106Z,43.87
2019-01-25T04:15:15.724Z,49.00
2019-01-25T04:17:44.122Z,45.60
2019-01-25T04:20:15.059Z,46.30
2019-01-25T04:22:43.456Z,41.80
2019-01-25T04:25:14.576Z,39.33
2019-01-25T04:27:43.043Z,42.73
2019-01-25T04:30:14.527Z,37.63
2019-01-25T04:32:43.018Z,46.93
2019-01-25T04:35:11.473Z,42.67
2019-01-25T04:37:39.873Z,41.37
2019-01-25T04:40:11.489Z,45.63
2019-01-25T04:42:39.955Z,44.57
2019-01-25T04:45:14.437Z,40.57
2019-01-25T04:47:42.891Z,41.83
2019-01-25T04:50:19.158Z,41.67
2019-01-25T04:52:47.524Z,38.33
2019-01-25T04:55:21.197Z,36.73
2019-01-25T04:57:49.979Z,39.03
2019-01-25T05:00:21.053Z,30.67
2019-01-25T05:02:54.246Z,35.37
2019-01-25T05:05:23.003Z,34.47
2019-01-25T05:07:54.615Z,38.73
2019-01-25T05:10:22.995Z,35.90
2019-01-25T05:12:54.338Z,37.93
2019-01-25T05:15:22.791Z,36.83
2019-01-25T05:17:55.149Z,33.23
2019-01-25T05:20:23.603Z,32.87
2019-01-25T05:23:00.341Z,35.90
2019-01-25T05:25:29.190Z,35.80
2019-01-25T05:27:57.594Z,34.90
2019-01-25T05:30:26.551Z,35.20
2019-01-25T05:32:54.946Z,35.93
2019-01-25T05:35:23.338Z,39.23
2019-01-25T05:37:51.732Z,35.30
2019-01-25T05:40:22.658Z,32.20
2019-01-25T05:42:51.039Z,29.70
2019-01-25T05:45:19.492Z,30.80
2019-01-25T05:47:47.871Z,29.90
2019-01-25T05:50:17.407Z,33.53
2019-01-25T05:52:45.857Z,34.20
2019-01-25T05:55:21.975Z,30.03
2019-01-25T05:57:50.534Z,34.17
2019-01-25T06:00:23.339Z,31.83
2019-01-25T06:02:51.788Z,33.07
2019-01-25T06:05:20.184Z,34.97
2019-01-25T06:07:48.585Z,32.87
2019-01-25T06:10:16.972Z,29.93
2019-01-25T06:12:48.505Z,31.50
2019-01-25T06:15:16.903Z,27.13
2019-01-25T06:17:45.287Z,32.60
2019-01-25T06:20:14.035Z,32.40
2019-01-25T06:22:42.408Z,35.53
2019-01-25T06:25:10.882Z,29.30
2019-01-25T06:27:40.230Z,31.70
2019-01-25T06:30:16.864Z,33.87
2019-01-25T06:32:45.321Z,29.70
2019-01-25T06:35:13.726Z,30.47
2019-01-25T06:37:42.117Z,26.97
2019-01-25T06:40:12.350Z,25.87
2019-01-25T06:42:40.736Z,27.90
2019-01-25T06:45:11.069Z,28.25
2019-01-25T06:47:39.523Z,30.53
2019-01-25T06:50:12.275Z,33.03
2019-01-25T06:52:40.658Z,28.17
2019-01-25T06:55:09.803Z,28.10
2019-01-25T06:57:45.611Z,29.20
2019-01-25T07:00:17.788Z,29.03
2019-01-25T07:02:46.175Z,26.23
2019-01-25T07:05:14.577Z,27.65
2019-01-25T07:07:44.528Z,29.00
2019-01-25T07:10:15.969Z,26.23
2019-01-25T07:12:44.359Z,28.23
2019-01-25T07:15:14.829Z,29.50
2019-01-25T07:17:43.220Z,27.37
2019-01-25T07:20:14.056Z,24.87
2019-01-25T07:22:42.433Z,24.00
2019-01-25T07:25:13.070Z,24.43
2019-01-25T07:27:41.452Z,28.17
2019-01-25T07:30:12.901Z,29.90
2019-01-25T07:32:41.448Z,27.67
2019-01-25T07:35:10.693Z,25.43
2019-01-25T07:37:39.144Z,28.10
2019-01-25T07:40:08.890Z,26.40
2019-01-25T07:42:37.267Z,29.10
2019-01-25T07:45:11.542Z,28.33
2019-01-25T07:47:39.977Z,28.57
2019-01-25T07:50:10.495Z,33.53
2019-01-25T07:52:39.055Z,29.37
2019-01-25T07:55:09.693Z,31.60
2019-01-25T07:57:38.087Z,29.93
2019-01-25T08:00:12.873Z,30.52
2019-01-25T08:02:41.259Z,33.60
2019-01-25T08:05:10.721Z,28.80
2019-01-25T08:07:39.317Z,26.97
2019-01-25T08:10:10.774Z,29.30
2019-01-25T08:12:39.235Z,31.83
2019-01-25T08:15:10.679Z,29.03
2019-01-25T08:17:39.057Z,28.07
2019-01-25T08:20:10.481Z,25.70
2019-01-25T08:22:38.855Z,30.27
2019-01-25T08:25:08.866Z,27.23
2019-01-25T08:27:37.247Z,24.53
2019-01-25T08:30:22.611Z,29.30
2019-01-25T08:32:51.373Z,28.20
2019-01-25T08:35:20.879Z,31.27
2019-01-25T08:37:49.308Z,30.20
2019-01-25T08:40:18.462Z,30.88
2019-01-25T08:42:46.842Z,30.30
2019-01-25T08:45:16.882Z,25.13
2019-01-25T08:47:45.268Z,28.50
2019-01-25T08:50:19.073Z,23.57
2019-01-25T08:52:47.580Z,25.20
2019-01-25T08:55:16.197Z,27.77
2019-01-25T08:57:44.652Z,25.12
2019-01-25T09:00:15.964Z,25.53
2019-01-25T09:02:44.354Z,25.50
2019-01-25T09:05:13.388Z,26.70
2019-01-25T09:07:41.840Z,26.97
2019-01-25T09:10:15.590Z,28.47
2019-01-25T09:12:43.978Z,30.72
2019-01-25T09:15:15.382Z,27.87
2019-01-25T09:17:43.764Z,26.23
2019-01-25T09:20:15.608Z,26.10
2019-01-25T09:22:43.986Z,22.25
2019-01-25T09:25:12.625Z,30.20
2019-01-25T09:27:41.018Z,27.70
2019-01-25T09:30:18.224Z,25.43
2019-01-25T09:32:46.686Z,26.43
2019-01-25T09:35:15.623Z,22.40
2019-01-25T09:37:44.072Z,29.23
2019-01-25T09:40:18.187Z,29.93
2019-01-25T09:42:46.587Z,30.40
2019-01-25T09:45:15.219Z,28.00
2019-01-25T09:47:43.599Z,23.90
2019-01-25T09:50:15.078Z,27.43
2019-01-25T09:52:43.469Z,23.40
2019-01-25T09:55:14.490Z,26.00
2019-01-25T09:57:42.888Z,29.73
2019-01-25T10:00:23.011Z,24.37
2019-01-25T10:02:51.400Z,31.23
2019-01-25T10:05:19.778Z,23.27
2019-01-25T10:07:48.249Z,26.27
2019-01-25T10:10:16.819Z,25.37
2019-01-25T10:12:45.219Z,27.50
2019-01-25T10:15:19.837Z,24.10
2019-01-25T10:17:48.231Z,22.63
2019-01-25T10:20:18.271Z,26.87
2019-01-25T10:22:46.665Z,26.37
2019-01-25T10:25:15.047Z,23.07
2019-01-25T10:27:43.516Z,21.27
2019-01-25T10:30:15.259Z,25.37
2019-01-25T10:32:43.653Z,23.73
2019-01-25T10:35:12.574Z,27.40
2019-01-25T10:37:40.964Z,21.63
2019-01-25T10:40:12.566Z,20.90
2019-01-25T10:42:45.532Z,24.27
2019-01-25T10:45:16.896Z,25.07
2019-01-25T10:47:45.465Z,28.20
2019-01-25T10:50:14.093Z,25.60
2019-01-25T10:52:42.560Z,26.43
2019-01-25T10:55:12.088Z,22.10
2019-01-25T10:57:40.656Z,34.93
2019-01-25T11:00:17.654Z,22.10
2019-01-25T11:02:46.037Z,22.03
2019-01-25T11:05:17.277Z,24.03
2019-01-25T11:07:45.720Z,23.70
2019-01-25T11:10:14.343Z,25.47
2019-01-25T11:12:43.180Z,22.70
2019-01-25T11:15:20.508Z,21.93
2019-01-25T11:17:49.236Z,26.20
2019-01-25T11:20:22.483Z,25.63
2019-01-25T11:22:50.944Z,30.80
2019-01-25T11:25:25.213Z,23.37
2019-01-25T11:27:53.615Z,29.13
2019-01-25T11:30:22.139Z,24.60
2019-01-25T11:32:50.534Z,29.10
2019-01-25T11:35:18.913Z,20.67
2019-01-25T11:37:47.319Z,25.10
2019-01-25T11:40:21.251Z,24.57
2019-01-25T11:42:49.641Z,23.57
2019-01-25T11:45:18.191Z,33.47
2019-01-25T11:47:46.719Z,23.50
2019-01-25T11:50:17.921Z,24.50
2019-01-25T11:52:46.359Z,21.97
2019-01-25T11:55:16.786Z,28.80
2019-01-25T11:57:45.451Z,18.90
2019-01-25T12:00:19.564Z,21.93
2019-01-25T12:02:48.032Z,24.50
2019-01-25T12:05:19.633Z,21.93
2019-01-25T12:07:48.021Z,27.17
2019-01-25T12:10:19.502Z,23.77
2019-01-25T12:12:47.896Z,30.60
2019-01-25T12:15:17.224Z,22.87
2019-01-25T12:17:45.787Z,22.57
2019-01-25T12:20:17.518Z,26.20
2019-01-25T12:22:46.020Z,24.87
2019-01-25T12:25:14.402Z,21.93
2019-01-25T12:27:42.805Z,22.70
2019-01-25T12:30:14.234Z,19.53
2019-01-25T12:32:42.632Z,23.00
2019-01-25T12:35:12.758Z,25.10
2019-01-25T12:37:41.155Z,21.90
2019-01-25T12:40:17.639Z,22.13
2019-01-25T12:42:46.033Z,26.87
2019-01-25T12:45:20.224Z,30.97
2019-01-25T12:47:48.610Z,23.90
2019-01-25T12:50:22.848Z,23.40
2019-01-25T12:52:51.248Z,25.12
2019-01-25T12:55:19.772Z,26.00
2019-01-25T12:57:48.172Z,24.60
2019-01-25T13:00:20.739Z,23.53
2019-01-25T13:02:49.136Z,18.63
2019-01-25T13:05:19.363Z,25.00
2019-01-25T13:07:47.846Z,27.50
2019-01-25T13:10:22.267Z,24.27
2019-01-25T13:12:50.679Z,25.70
2019-01-25T13:15:19.082Z,22.10
2019-01-25T13:17:47.486Z,27.60
2019-01-25T13:20:21.189Z,21.53
2019-01-25T13:22:49.578Z,24.53
2019-01-25T13:25:17.967Z,28.53
2019-01-25T13:27:46.536Z,25.37
2019-01-25T13:30:19.392Z,25.17
2019-01-25T13:32:47.947Z,23.03
2019-01-25T13:35:16.470Z,20.60
2019-01-25T13:37:44.866Z,20.50
2019-01-25T13:40:15.807Z,23.37
2019-01-25T13:42:45.231Z,20.47
2019-01-25T13:45:18.281Z,24.05
2019-01-25T13:47:46.764Z,22.83
2019-01-25T13:50:17.934Z,20.93
2019-01-25T13:52:46.502Z,24.43
2019-01-25T13:55:16.433Z,19.25
2019-01-25T13:57:45.077Z,22.23
2019-01-25T14:00:23.021Z,23.53
2019-01-25T14:02:51.532Z,19.87
2019-01-25T14:05:19.925Z,19.90
2019-01-25T14:07:48.380Z,16.85
2019-01-25T14:10:22.245Z,25.40
2019-01-25T14:12:51.719Z,17.37
2019-01-25T14:15:20.099Z,23.80
2019-01-25T14:17:48.483Z,22.00
2019-01-25T14:20:25.798Z,17.57
2019-01-25T14:22:54.196Z,18.73
2019-01-25T14:25:22.654Z,20.07
2019-01-25T14:27:51.033Z,19.20
2019-01-25T14:30:28.133Z,19.80
2019-01-25T14:32:56.523Z,16.47
2019-01-25T14:35:24.908Z,22.00
2019-01-25T14:37:53.285Z,16.50
2019-01-25T14:40:22.670Z,14.45
2019-01-25T14:42:51.049Z,20.97
2019-01-25T14:45:27.972Z,17.33
2019-01-25T14:47:56.426Z,18.95
2019-01-25T14:50:30.774Z,14.40
2019-01-25T14:53:01.319Z,14.60
2019-01-25T14:55:29.784Z,22.23
2019-01-25T14:57:58.387Z,18.00
2019-01-25T15:00:26.777Z,18.37
2019-01-25T15:02:56.126Z,19.40
2019-01-25T15:05:26.509Z,15.00
2019-01-25T15:07:54.916Z,15.43
2019-01-25T15:10:24.842Z,15.57
2019-01-25T15:12:56.083Z,21.07
2019-01-25T15:15:26.676Z,14.23
2019-01-25T15:17:55.200Z,14.97
2019-01-25T15:20:26.531Z,12.40
2019-01-25T15:22:54.917Z,13.80
2019-01-25T15:25:23.380Z,18.63
2019-01-25T15:27:51.761Z,15.20
2019-01-25T15:30:28.049Z,11.65
2019-01-25T15:32:56.572Z,13.37
2019-01-25T15:35:25.507Z,14.33
2019-01-25T15:37:53.882Z,14.90
2019-01-25T15:40:22.930Z,17.30
2019-01-25T15:42:52.364Z,13.43
2019-01-25T15:45:22.200Z,15.58
2019-01-25T15:47:50.819Z,11.13
2019-01-25T15:50:27.303Z,12.10
2019-01-25T15:52:55.690Z,12.83
2019-01-25T15:55:25.643Z,13.10
2019-01-25T15:57:54.024Z,10.98
2019-01-25T16:00:27.141Z,11.70
2019-01-25T16:02:55.588Z,11.20
2019-01-25T16:05:24.723Z,11.97
2019-01-25T16:07:53.372Z,12.47
2019-01-25T16:10:22.710Z,12.13
2019-01-25T16:12:51.426Z,10.43
2019-01-25T16:15:24.922Z,10.77
2019-01-25T16:17:53.436Z,10.40
2019-01-25T16:20:21.905Z,11.90
2019-01-25T16:22:52.128Z,10.50
2019-01-25T16:25:23.727Z,9.00
2019-01-25T16:27:52.110Z,13.23
2019-01-25T16:30:23.383Z,8.30
2019-01-25T16:32:51.794Z,9.38
2019-01-25T16:35:20.192Z,7.93
2019-01-25T16:37:48.568Z,9.07
2019-01-25T16:40:19.098Z,10.80
2019-01-25T16:42:47.475Z,10.32
2019-01-25T16:45:18.604Z,8.63
2019-01-25T16:47:46.979Z,8.50
2019-01-25T16:50:23.398Z,8.30
2019-01-25T16:52:45.955Z,9.07
2019-01-25T16:55:15.884Z,9.90
2019-01-25T16:57:44.264Z,7.80
2019-01-25T17:00:24.254Z,9.83
2019-01-25T17:02:52.634Z,19.43
2019-01-25T17:05:21.391Z,8.10
2019-01-25T17:07:49.768Z,9.70
2019-01-25T17:10:18.293Z,9.63
2019-01-25T17:12:46.674Z,10.90
2019-01-25T17:15:16.609Z,14.00
2019-01-25T17:17:45.155Z,8.77
2019-01-25T17:20:21.462Z,6.73
2019-01-25T17:22:49.251Z,8.90
2019-01-25T17:25:17.713Z,15.00
2019-01-25T17:27:46.340Z,11.40
2019-01-25T17:30:26.515Z,7.60
2019-01-25T17:32:56.437Z,12.60
2019-01-25T17:35:24.897Z,7.23
2019-01-25T17:37:53.406Z,6.72
2019-01-25T17:40:37.243Z,7.25
2019-01-25T17:43:05.745Z,8.17
2019-01-25T17:45:34.079Z,7.97
2019-01-25T17:48:02.450Z,5.90
2019-01-25T17:50:30.841Z,9.50
2019-01-25T17:52:59.303Z,30.40
2019-01-25T17:55:27.698Z,30.37
2019-01-25T17:57:56.083Z,35.53
2019-01-25T18:00:31.782Z,46.23
2019-01-25T18:03:00.380Z,66.97
2019-01-25T18:05:28.780Z,52.90
2019-01-25T18:07:57.163Z,44.00
2019-01-25T18:10:26.205Z,40.60
2019-01-25T18:12:54.588Z,40.27
2019-01-25T18:15:22.995Z,34.40
2019-01-25T18:17:51.380Z,31.90
2019-01-25T18:20:21.918Z,34.63
2019-01-25T18:22:50.370Z,24.82
2019-01-25T18:25:34.015Z,28.42
2019-01-25T18:28:05.383Z,22.67
2019-01-25T18:30:39.707Z,20.70
2019-01-25T18:33:08.165Z,20.97
2019-01-25T18:35:36.559Z,17.23
2019-01-25T18:38:05.514Z,15.90
2019-01-25T18:40:33.892Z,17.20
2019-01-25T18:43:02.278Z,13.90
2019-01-25T18:45:30.668Z,14.77
2019-01-25T18:47:59.096Z,17.67
2019-01-25T18:50:27.501Z,15.93
2019-01-25T18:52:55.894Z,14.30
2019-01-25T18:55:25.727Z,10.93
2019-01-25T18:57:54.113Z,16.75
2019-01-25T19:00:22.838Z,12.20
2019-01-25T19:02:51.307Z,12.50
2019-01-25T19:05:19.752Z,13.30
2019-01-25T19:07:48.149Z,14.83
2019-01-25T19:10:19.341Z,11.80
2019-01-25T19:12:47.730Z,11.83
2019-01-25T19:15:32.681Z,10.90
2019-01-25T19:18:01.064Z,9.93
2019-01-25T19:20:29.611Z,13.47
2019-01-25T19:22:58.011Z,11.50
2019-01-25T19:25:26.395Z,13.67
2019-01-25T19:27:54.796Z,14.50
2019-01-25T19:30:31.676Z,14.03
2019-01-25T19:33:00.509Z,10.93
2019-01-25T19:35:29.062Z,10.83
2019-01-25T19:37:57.800Z,13.77
2019-01-25T19:40:31.895Z,8.67
2019-01-25T19:43:00.545Z,10.63
2019-01-25T19:45:28.920Z,10.47
2019-01-25T19:47:57.581Z,7.60
2019-01-25T19:50:27.464Z,8.00
2019-01-25T19:52:55.854Z,9.98
2019-01-25T19:55:26.671Z,9.70
2019-01-25T19:57:55.496Z,8.25
2019-01-25T20:00:32.887Z,7.67
2019-01-25T20:03:01.338Z,9.50
2019-01-25T20:05:33.119Z,8.00
2019-01-25T20:08:01.590Z,8.27
2019-01-25T20:10:30.032Z,8.83
2019-01-25T20:12:58.487Z,8.20
2019-01-25T20:15:27.917Z,8.97
2019-01-25T20:17:56.369Z,9.50
2019-01-25T20:20:27.724Z,7.60
2019-01-25T20:22:56.184Z,6.97
2019-01-25T20:25:24.574Z,8.87
2019-01-25T20:27:53.125Z,7.50
2019-01-25T20:30:29.657Z,5.83
2019-01-25T20:32:58.437Z,7.97
2019-01-25T20:35:29.348Z,7.10
2019-01-25T20:37:57.738Z,6.67
2019-01-25T20:40:26.109Z,6.55
2019-01-25T20:42:54.506Z,7.53
2019-01-25T20:45:27.326Z,7.23
2019-01-25T20:47:55.707Z,7.97
2019-01-25T20:50:26.521Z,8.73
2019-01-25T20:52:54.908Z,5.00
2019-01-25T20:55:23.627Z,8.50
2019-01-25T20:57:52.086Z,7.20
2019-01-25T21:00:23.143Z,7.07
2019-01-25T21:02:51.591Z,5.75
2019-01-25T21:05:20.315Z,12.53
2019-01-25T21:07:48.711Z,7.40
2019-01-25T21:10:19.801Z,6.47
2019-01-25T21:12:48.427Z,8.80
2019-01-25T21:15:19.443Z,9.67
2019-01-25T21:17:47.892Z,9.03
2019-01-25T21:20:18.990Z,15.33
2019-01-25T21:22:47.919Z,11.10
2019-01-25T21:25:16.475Z,7.03
2019-01-25T21:27:45.062Z,5.83
2019-01-25T21:30:22.360Z,4.77
2019-01-25T21:32:50.910Z,6.10
2019-01-25T21:35:19.360Z,3.27
2019-01-25T21:37:47.830Z,4.10
2019-01-25T21:40:18.748Z,8.97
2019-01-25T21:42:47.212Z,4.00
2019-01-25T21:45:18.472Z,9.20
2019-01-25T21:47:46.936Z,5.07
2019-01-25T21:50:21.228Z,3.53
2019-01-25T21:52:49.851Z,4.10
2019-01-25T21:55:18.298Z,4.42
2019-01-25T21:57:47.689Z,4.43
2019-01-25T22:00:21.492Z,7.37
2019-01-25T22:02:49.892Z,4.53
2019-01-25T22:05:18.502Z,4.97
2019-01-25T22:07:46.908Z,4.43
2019-01-25T22:10:26.712Z,3.00
2019-01-25T22:12:55.259Z,3.90
2019-01-25T22:15:23.816Z,2.97
2019-01-25T22:17:52.204Z,7.13
2019-01-25T22:20:26.211Z,3.93
2019-01-25T22:22:54.624Z,2.80
2019-01-25T22:25:23.072Z,4.40
2019-01-25T22:27:52.604Z,3.47
2019-01-25T22:30:25.984Z,2.95
2019-01-25T22:32:54.984Z,4.83
2019-01-25T22:35:23.494Z,3.60
2019-01-25T22:37:53.173Z,5.80
2019-01-25T22:40:26.764Z,5.08
2019-01-25T22:42:55.165Z,3.03
2019-01-25T22:45:26.321Z,5.17
2019-01-25T22:47:55.478Z,4.17
2019-01-25T22:50:26.461Z,3.00
2019-01-25T22:52:54.923Z,3.07
2019-01-25T22:55:24.145Z,2.30
2019-01-25T22:57:52.587Z,4.43
2019-01-25T23:00:46.406Z,3.57
2019-01-25T23:03:17.427Z,7.53
2019-01-25T23:08:34.851Z,6.20
2019-01-25T23:11:03.266Z,3.17
2019-01-25T23:13:31.721Z,4.10
2019-01-25T23:16:06.297Z,6.62
2019-01-25T23:18:30.213Z,12.82
2019-01-25T23:20:58.593Z,4.80
2019-01-25T23:23:26.979Z,3.37
2019-01-25T23:25:55.517Z,4.43
2019-01-25T23:28:23.989Z,4.83
2019-01-25T23:30:52.370Z,6.70
2019-01-25T23:33:20.758Z,4.03
2019-01-25T23:35:49.182Z,3.80
2019-01-25T23:38:17.518Z,9.03
2019-01-25T23:40:45.913Z,4.87
2019-01-25T23:43:14.892Z,6.60
2019-01-25T23:45:43.290Z,7.63
2019-01-25T23:48:11.680Z,4.97
2019-01-25T23:50:40.079Z,5.13
2019-01-25T23:53:08.458Z,7.03
2019-01-25T23:55:36.843Z,6.90
2019-01-25T23:58:05.293Z,6.77
